sensor_id;sensor_type;location;lat;lon;timestamp;P1;durP1;ratioP1;P2;durP2;ratioP2
55009;SDS011;40903;51.638;7.528;2023-12-29T00:01:09;2.40;;;1.00;;
55009;SDS011;40903;51.638;7.528;2023-12-29T00:03:35;4.73;;;1.03;;
55009;SDS011;40903;51.638;7.528;2023-12-29T00:06:02;2.50;;;0.87;;
55009;SDS011;40903;51.638;7.528;2023-12-29T00:08:28;6.17;;;1.57;;
55009;SDS011;40903;51.638;7.528;2023-12-29T00:10:53;3.50;;;1.07;;
55009;SDS011;40903;51.638;7.528;2023-12-29T00:13:19;1.70;;;1.10;;
55009;SDS011;40903;51.638;7.528;2023-12-29T00:15:48;4.13;;;1.10;;
55009;SDS011;40903;51.638;7.528;2023-12-29T00:18:16;6.50;;;1.20;;
55009;SDS011;40903;51.638;7.528;2023-12-29T00:20:42;4.30;;;1.33;;
55009;SDS011;40903;51.638;7.528;2023-12-29T00:23:07;4.97;;;1.00;;
55009;SDS011;40903;51.638;7.528;2023-12-29T00:25:35;5.47;;;1.20;;
55009;SDS011;40903;51.638;7.528;2023-12-29T00:28:06;1.50;;;0.90;;
55009;SDS011;40903;51.638;7.528;2023-12-29T00:30:32;6.33;;;1.23;;
55009;SDS011;40903;51.638;7.528;2023-12-29T00:32:57;1.70;;;1.10;;
55009;SDS011;40903;51.638;7.528;2023-12-29T00:35:22;4.13;;;0.90;;
55009;SDS011;40903;51.638;7.528;2023-12-29T00:37:49;2.67;;;1.03;;
55009;SDS011;40903;51.638;7.528;2023-12-29T00:40:15;4.83;;;1.13;;
55009;SDS011;40903;51.638;7.528;2023-12-29T00:42:40;2.97;;;1.23;;
55009;SDS011;40903;51.638;7.528;2023-12-29T00:45:05;6.50;;;1.10;;
55009;SDS011;40903;51.638;7.528;2023-12-29T00:47:31;7.63;;;1.80;;
55009;SDS011;40903;51.638;7.528;2023-12-29T00:49:57;4.90;;;1.27;;
55009;SDS011;40903;51.638;7.528;2023-12-29T00:52:22;1.00;;;0.90;;
55009;SDS011;40903;51.638;7.528;2023-12-29T00:54:47;1.50;;;1.00;;
55009;SDS011;40903;51.638;7.528;2023-12-29T00:57:13;5.63;;;1.30;;
55009;SDS011;40903;51.638;7.528;2023-12-29T00:59:38;3.77;;;0.80;;
55009;SDS011;40903;51.638;7.528;2023-12-29T01:02:06;3.17;;;1.10;;
55009;SDS011;40903;51.638;7.528;2023-12-29T01:04:33;2.63;;;0.90;;
55009;SDS011;40903;51.638;7.528;2023-12-29T01:06:58;4.63;;;1.60;;
55009;SDS011;40903;51.638;7.528;2023-12-29T01:09:24;2.50;;;0.97;;
55009;SDS011;40903;51.638;7.528;2023-12-29T01:11:49;2.77;;;1.17;;
55009;SDS011;40903;51.638;7.528;2023-12-29T01:14:14;7.47;;;1.00;;
55009;SDS011;40903;51.638;7.528;2023-12-29T01:16:40;3.93;;;1.10;;
55009;SDS011;40903;51.638;7.528;2023-12-29T01:19:06;2.67;;;0.80;;
55009;SDS011;40903;51.638;7.528;2023-12-29T01:21:32;2.93;;;0.93;;
55009;SDS011;40903;51.638;7.528;2023-12-29T01:23:59;2.17;;;1.00;;
55009;SDS011;40903;51.638;7.528;2023-12-29T01:26:25;4.57;;;0.93;;
55009;SDS011;40903;51.638;7.528;2023-12-29T01:28:51;4.00;;;0.97;;
55009;SDS011;40903;51.638;7.528;2023-12-29T01:31:16;2.83;;;0.90;;
55009;SDS011;40903;51.638;7.528;2023-12-29T01:33:42;2.97;;;0.87;;
55009;SDS011;40903;51.638;7.528;2023-12-29T01:36:07;4.43;;;1.10;;
55009;SDS011;40903;51.638;7.528;2023-12-29T01:38:33;6.20;;;0.97;;
55009;SDS011;40903;51.638;7.528;2023-12-29T01:40:58;2.20;;;1.00;;
55009;SDS011;40903;51.638;7.528;2023-12-29T01:43:23;5.90;;;1.27;;
55009;SDS011;40903;51.638;7.528;2023-12-29T01:45:49;2.33;;;0.90;;
55009;SDS011;40903;51.638;7.528;2023-12-29T01:48:14;5.00;;;1.57;;
55009;SDS011;40903;51.638;7.528;2023-12-29T01:50:39;2.90;;;0.80;;
55009;SDS011;40903;51.638;7.528;2023-12-29T01:53:05;4.43;;;1.00;;
55009;SDS011;40903;51.638;7.528;2023-12-29T01:55:31;4.23;;;0.97;;
55009;SDS011;40903;51.638;7.528;2023-12-29T01:57:56;4.77;;;1.47;;
55009;SDS011;40903;51.638;7.528;2023-12-29T02:00:22;4.53;;;1.30;;
55009;SDS011;40903;51.638;7.528;2023-12-29T02:02:48;4.43;;;1.10;;
55009;SDS011;40903;51.638;7.528;2023-12-29T02:05:14;3.27;;;1.07;;
55009;SDS011;40903;51.638;7.528;2023-12-29T02:07:41;3.83;;;0.90;;
55009;SDS011;40903;51.638;7.528;2023-12-29T02:10:07;4.30;;;0.97;;
55009;SDS011;40903;51.638;7.528;2023-12-29T02:12:34;3.07;;;1.17;;
55009;SDS011;40903;51.638;7.528;2023-12-29T02:15:02;2.73;;;0.80;;
55009;SDS011;40903;51.638;7.528;2023-12-29T02:17:31;4.03;;;1.07;;
55009;SDS011;40903;51.638;7.528;2023-12-29T02:20:01;5.27;;;1.27;;
55009;SDS011;40903;51.638;7.528;2023-12-29T02:22:26;6.70;;;1.27;;
55009;SDS011;40903;51.638;7.528;2023-12-29T02:24:51;2.70;;;1.30;;
55009;SDS011;40903;51.638;7.528;2023-12-29T02:32:46;5.07;;;1.53;;
55009;SDS011;40903;51.638;7.528;2023-12-29T02:35:17;4.13;;;1.30;;
55009;SDS011;40903;51.638;7.528;2023-12-29T02:37:53;2.67;;;1.27;;
55009;SDS011;40903;51.638;7.528;2023-12-29T02:40:20;3.57;;;1.50;;
55009;SDS011;40903;51.638;7.528;2023-12-29T02:42:48;2.60;;;1.20;;
55009;SDS011;40903;51.638;7.528;2023-12-29T02:45:15;5.07;;;1.03;;
55009;SDS011;40903;51.638;7.528;2023-12-29T02:47:41;3.30;;;1.37;;
55009;SDS011;40903;51.638;7.528;2023-12-29T02:50:08;3.67;;;1.50;;
55009;SDS011;40903;51.638;7.528;2023-12-29T02:52:33;11.63;;;1.93;;
55009;SDS011;40903;51.638;7.528;2023-12-29T02:54:59;7.47;;;1.70;;
55009;SDS011;40903;51.638;7.528;2023-12-29T02:57:24;7.20;;;1.37;;
55009;SDS011;40903;51.638;7.528;2023-12-29T02:59:49;3.43;;;1.57;;
55009;SDS011;40903;51.638;7.528;2023-12-29T03:02:14;11.87;;;1.53;;
55009;SDS011;40903;51.638;7.528;2023-12-29T03:04:40;5.00;;;1.47;;
55009;SDS011;40903;51.638;7.528;2023-12-29T03:07:05;6.57;;;2.17;;
55009;SDS011;40903;51.638;7.528;2023-12-29T03:09:31;3.53;;;1.37;;
55009;SDS011;40903;51.638;7.528;2023-12-29T03:11:56;5.50;;;1.67;;
55009;SDS011;40903;51.638;7.528;2023-12-29T03:14:21;7.97;;;1.83;;
55009;SDS011;40903;51.638;7.528;2023-12-29T03:16:47;2.87;;;1.40;;
55009;SDS011;40903;51.638;7.528;2023-12-29T03:19:12;9.83;;;1.30;;
55009;SDS011;40903;51.638;7.528;2023-12-29T03:21:37;5.20;;;1.40;;
55009;SDS011;40903;51.638;7.528;2023-12-29T03:24:02;2.23;;;1.30;;
55009;SDS011;40903;51.638;7.528;2023-12-29T03:26:28;8.03;;;1.77;;
55009;SDS011;40903;51.638;7.528;2023-12-29T03:28:54;5.23;;;1.50;;
55009;SDS011;40903;51.638;7.528;2023-12-29T03:31:20;4.97;;;1.40;;
55009;SDS011;40903;51.638;7.528;2023-12-29T03:33:46;6.63;;;1.53;;
55009;SDS011;40903;51.638;7.528;2023-12-29T03:36:11;5.30;;;1.37;;
55009;SDS011;40903;51.638;7.528;2023-12-29T03:38:36;5.10;;;1.43;;
55009;SDS011;40903;51.638;7.528;2023-12-29T03:41:04;3.40;;;1.60;;
55009;SDS011;40903;51.638;7.528;2023-12-29T03:43:30;2.77;;;1.67;;
55009;SDS011;40903;51.638;7.528;2023-12-29T03:45:55;1.47;;;1.10;;
55009;SDS011;40903;51.638;7.528;2023-12-29T03:48:20;4.33;;;1.30;;
55009;SDS011;40903;51.638;7.528;2023-12-29T03:50:46;3.47;;;1.63;;
55009;SDS011;40903;51.638;7.528;2023-12-29T03:53:11;6.23;;;1.83;;
55009;SDS011;40903;51.638;7.528;2023-12-29T03:55:37;4.50;;;1.37;;
55009;SDS011;40903;51.638;7.528;2023-12-29T03:58:02;3.63;;;1.33;;
55009;SDS011;40903;51.638;7.528;2023-12-29T04:00:28;10.33;;;1.40;;
55009;SDS011;40903;51.638;7.528;2023-12-29T04:02:53;3.87;;;1.40;;
55009;SDS011;40903;51.638;7.528;2023-12-29T04:05:18;5.27;;;1.47;;
55009;SDS011;40903;51.638;7.528;2023-12-29T04:07:44;4.83;;;1.30;;
55009;SDS011;40903;51.638;7.528;2023-12-29T04:10:09;4.50;;;1.57;;
55009;SDS011;40903;51.638;7.528;2023-12-29T04:12:35;3.00;;;1.17;;
55009;SDS011;40903;51.638;7.528;2023-12-29T04:15:01;2.73;;;1.27;;
55009;SDS011;40903;51.638;7.528;2023-12-29T04:17:27;7.63;;;1.73;;
55009;SDS011;40903;51.638;7.528;2023-12-29T04:19:52;3.13;;;1.23;;
55009;SDS011;40903;51.638;7.528;2023-12-29T04:22:18;8.43;;;1.30;;
55009;SDS011;40903;51.638;7.528;2023-12-29T04:24:43;5.67;;;1.73;;
55009;SDS011;40903;51.638;7.528;2023-12-29T04:27:09;6.87;;;1.50;;
55009;SDS011;40903;51.638;7.528;2023-12-29T04:29:35;4.23;;;1.50;;
55009;SDS011;40903;51.638;7.528;2023-12-29T04:32:00;7.23;;;1.63;;
55009;SDS011;40903;51.638;7.528;2023-12-29T04:34:25;3.27;;;1.20;;
55009;SDS011;40903;51.638;7.528;2023-12-29T04:36:50;9.43;;;1.50;;
55009;SDS011;40903;51.638;7.528;2023-12-29T04:39:16;3.93;;;1.07;;
55009;SDS011;40903;51.638;7.528;2023-12-29T04:41:41;3.40;;;1.47;;
55009;SDS011;40903;51.638;7.528;2023-12-29T04:44:06;6.67;;;1.23;;
55009;SDS011;40903;51.638;7.528;2023-12-29T04:46:32;7.23;;;1.20;;
55009;SDS011;40903;51.638;7.528;2023-12-29T04:48:57;4.30;;;1.33;;
55009;SDS011;40903;51.638;7.528;2023-12-29T04:51:22;5.93;;;1.57;;
55009;SDS011;40903;51.638;7.528;2023-12-29T04:53:47;8.50;;;1.83;;
55009;SDS011;40903;51.638;7.528;2023-12-29T04:56:13;2.97;;;1.07;;
55009;SDS011;40903;51.638;7.528;2023-12-29T04:58:38;7.43;;;1.33;;
55009;SDS011;40903;51.638;7.528;2023-12-29T05:01:03;3.33;;;1.03;;
55009;SDS011;40903;51.638;7.528;2023-12-29T05:03:29;3.40;;;1.20;;
55009;SDS011;40903;51.638;7.528;2023-12-29T05:05:54;6.93;;;1.50;;
55009;SDS011;40903;51.638;7.528;2023-12-29T05:08:19;4.47;;;1.50;;
55009;SDS011;40903;51.638;7.528;2023-12-29T05:10:44;4.50;;;1.03;;
55009;SDS011;40903;51.638;7.528;2023-12-29T05:13:10;2.03;;;1.23;;
55009;SDS011;40903;51.638;7.528;2023-12-29T05:15:35;3.10;;;1.00;;
55009;SDS011;40903;51.638;7.528;2023-12-29T05:18:00;2.80;;;1.20;;
55009;SDS011;40903;51.638;7.528;2023-12-29T05:20:26;6.83;;;1.50;;
55009;SDS011;40903;51.638;7.528;2023-12-29T05:22:51;6.37;;;1.67;;
55009;SDS011;40903;51.638;7.528;2023-12-29T05:25:16;5.07;;;1.47;;
55009;SDS011;40903;51.638;7.528;2023-12-29T05:27:42;3.17;;;1.13;;
55009;SDS011;40903;51.638;7.528;2023-12-29T05:30:07;4.67;;;1.10;;
55009;SDS011;40903;51.638;7.528;2023-12-29T05:32:33;5.90;;;1.70;;
55009;SDS011;40903;51.638;7.528;2023-12-29T05:34:58;2.90;;;1.50;;
55009;SDS011;40903;51.638;7.528;2023-12-29T05:37:24;7.37;;;1.70;;
55009;SDS011;40903;51.638;7.528;2023-12-29T05:39:49;7.20;;;2.03;;
55009;SDS011;40903;51.638;7.528;2023-12-29T05:42:14;5.67;;;1.30;;
55009;SDS011;40903;51.638;7.528;2023-12-29T05:44:40;4.93;;;1.47;;
55009;SDS011;40903;51.638;7.528;2023-12-29T05:47:05;6.10;;;1.50;;
55009;SDS011;40903;51.638;7.528;2023-12-29T05:49:30;5.70;;;1.10;;
55009;SDS011;40903;51.638;7.528;2023-12-29T05:51:57;4.37;;;1.50;;
55009;SDS011;40903;51.638;7.528;2023-12-29T05:54:22;2.10;;;1.37;;
55009;SDS011;40903;51.638;7.528;2023-12-29T05:56:48;4.97;;;1.17;;
55009;SDS011;40903;51.638;7.528;2023-12-29T05:59:13;3.73;;;1.20;;
55009;SDS011;40903;51.638;7.528;2023-12-29T06:01:38;3.10;;;1.37;;
55009;SDS011;40903;51.638;7.528;2023-12-29T06:04:04;6.33;;;1.20;;
55009;SDS011;40903;51.638;7.528;2023-12-29T06:06:29;4.80;;;1.13;;
55009;SDS011;40903;51.638;7.528;2023-12-29T06:08:54;9.30;;;1.53;;
55009;SDS011;40903;51.638;7.528;2023-12-29T06:11:20;9.97;;;1.60;;
55009;SDS011;40903;51.638;7.528;2023-12-29T06:13:45;10.53;;;1.90;;
55009;SDS011;40903;51.638;7.528;2023-12-29T06:16:17;4.07;;;1.20;;
55009;SDS011;40903;51.638;7.528;2023-12-29T06:18:43;7.47;;;1.50;;
55009;SDS011;40903;51.638;7.528;2023-12-29T06:21:08;5.07;;;1.03;;
55009;SDS011;40903;51.638;7.528;2023-12-29T06:23:34;5.70;;;1.93;;
55009;SDS011;40903;51.638;7.528;2023-12-29T06:25:59;2.20;;;1.07;;
55009;SDS011;40903;51.638;7.528;2023-12-29T06:28:24;7.33;;;1.50;;
55009;SDS011;40903;51.638;7.528;2023-12-29T06:30:50;4.37;;;1.23;;
55009;SDS011;40903;51.638;7.528;2023-12-29T06:33:15;5.70;;;1.30;;
55009;SDS011;40903;51.638;7.528;2023-12-29T06:35:41;4.30;;;1.10;;
55009;SDS011;40903;51.638;7.528;2023-12-29T06:38:06;2.80;;;1.23;;
55009;SDS011;40903;51.638;7.528;2023-12-29T06:40:31;4.50;;;1.00;;
55009;SDS011;40903;51.638;7.528;2023-12-29T06:42:56;3.47;;;1.17;;
55009;SDS011;40903;51.638;7.528;2023-12-29T06:45:22;3.50;;;1.07;;
55009;SDS011;40903;51.638;7.528;2023-12-29T06:47:47;1.53;;;0.97;;
55009;SDS011;40903;51.638;7.528;2023-12-29T06:50:13;3.37;;;1.00;;
55009;SDS011;40903;51.638;7.528;2023-12-29T06:52:38;3.87;;;1.13;;
55009;SDS011;40903;51.638;7.528;2023-12-29T06:55:04;4.00;;;1.43;;
55009;SDS011;40903;51.638;7.528;2023-12-29T06:57:30;11.63;;;1.30;;
55009;SDS011;40903;51.638;7.528;2023-12-29T06:59:55;4.90;;;1.23;;
55009;SDS011;40903;51.638;7.528;2023-12-29T07:02:21;7.27;;;1.73;;
55009;SDS011;40903;51.638;7.528;2023-12-29T07:04:46;3.33;;;1.50;;
55009;SDS011;40903;51.638;7.528;2023-12-29T07:07:12;5.77;;;1.17;;
55009;SDS011;40903;51.638;7.528;2023-12-29T07:09:38;5.87;;;1.40;;
55009;SDS011;40903;51.638;7.528;2023-12-29T07:12:04;5.03;;;1.63;;
55009;SDS011;40903;51.638;7.528;2023-12-29T07:14:30;5.97;;;1.70;;
55009;SDS011;40903;51.638;7.528;2023-12-29T07:16:55;4.40;;;1.87;;
55009;SDS011;40903;51.638;7.528;2023-12-29T07:19:21;2.93;;;1.30;;
55009;SDS011;40903;51.638;7.528;2023-12-29T07:21:46;6.27;;;1.37;;
55009;SDS011;40903;51.638;7.528;2023-12-29T07:24:11;4.67;;;1.10;;
55009;SDS011;40903;51.638;7.528;2023-12-29T07:26:36;4.20;;;1.13;;
55009;SDS011;40903;51.638;7.528;2023-12-29T07:29:02;3.10;;;1.80;;
55009;SDS011;40903;51.638;7.528;2023-12-29T07:31:27;3.83;;;1.00;;
55009;SDS011;40903;51.638;7.528;2023-12-29T07:33:52;6.83;;;1.27;;
55009;SDS011;40903;51.638;7.528;2023-12-29T07:36:18;4.90;;;1.50;;
55009;SDS011;40903;51.638;7.528;2023-12-29T07:38:43;6.83;;;1.20;;
55009;SDS011;40903;51.638;7.528;2023-12-29T07:41:08;6.10;;;1.43;;
55009;SDS011;40903;51.638;7.528;2023-12-29T07:43:34;8.63;;;1.80;;
55009;SDS011;40903;51.638;7.528;2023-12-29T07:46:00;5.80;;;1.30;;
55009;SDS011;40903;51.638;7.528;2023-12-29T07:48:26;1.80;;;1.00;;
55009;SDS011;40903;51.638;7.528;2023-12-29T07:50:51;5.63;;;1.50;;
55009;SDS011;40903;51.638;7.528;2023-12-29T07:53:17;1.63;;;1.10;;
55009;SDS011;40903;51.638;7.528;2023-12-29T07:55:42;3.93;;;1.00;;
55009;SDS011;40903;51.638;7.528;2023-12-29T07:58:08;9.27;;;1.73;;
55009;SDS011;40903;51.638;7.528;2023-12-29T08:00:35;5.33;;;1.27;;
55009;SDS011;40903;51.638;7.528;2023-12-29T08:03:01;1.57;;;1.00;;
55009;SDS011;40903;51.638;7.528;2023-12-29T08:05:26;3.47;;;1.00;;
55009;SDS011;40903;51.638;7.528;2023-12-29T08:07:51;4.83;;;1.17;;
55009;SDS011;40903;51.638;7.528;2023-12-29T08:10:16;4.57;;;1.20;;
55009;SDS011;40903;51.638;7.528;2023-12-29T08:12:42;3.23;;;1.10;;
55009;SDS011;40903;51.638;7.528;2023-12-29T08:15:07;2.83;;;0.90;;
55009;SDS011;40903;51.638;7.528;2023-12-29T08:17:33;3.17;;;1.00;;
55009;SDS011;40903;51.638;7.528;2023-12-29T08:19:58;1.93;;;1.40;;
55009;SDS011;40903;51.638;7.528;2023-12-29T08:22:24;6.37;;;1.20;;
55009;SDS011;40903;51.638;7.528;2023-12-29T08:24:49;2.57;;;2.20;;
55009;SDS011;40903;51.638;7.528;2023-12-29T08:27:14;6.67;;;1.10;;
55009;SDS011;40903;51.638;7.528;2023-12-29T08:29:47;7.60;;;1.57;;
55009;SDS011;40903;51.638;7.528;2023-12-29T08:32:13;6.10;;;1.33;;
55009;SDS011;40903;51.638;7.528;2023-12-29T08:34:38;1.83;;;1.00;;
55009;SDS011;40903;51.638;7.528;2023-12-29T08:37:03;2.77;;;1.07;;
55009;SDS011;40903;51.638;7.528;2023-12-29T08:39:29;6.73;;;1.30;;
55009;SDS011;40903;51.638;7.528;2023-12-29T08:41:54;2.93;;;0.97;;
55009;SDS011;40903;51.638;7.528;2023-12-29T08:44:19;2.77;;;1.40;;
55009;SDS011;40903;51.638;7.528;2023-12-29T08:46:45;5.97;;;1.20;;
55009;SDS011;40903;51.638;7.528;2023-12-29T08:49:10;5.20;;;1.77;;
55009;SDS011;40903;51.638;7.528;2023-12-29T08:51:35;4.03;;;1.30;;
55009;SDS011;40903;51.638;7.528;2023-12-29T08:54:01;5.13;;;1.40;;
55009;SDS011;40903;51.638;7.528;2023-12-29T08:56:27;2.00;;;1.13;;
55009;SDS011;40903;51.638;7.528;2023-12-29T08:58:54;2.23;;;1.10;;
55009;SDS011;40903;51.638;7.528;2023-12-29T09:01:19;2.07;;;1.10;;
55009;SDS011;40903;51.638;7.528;2023-12-29T09:03:45;2.10;;;1.10;;
55009;SDS011;40903;51.638;7.528;2023-12-29T09:06:10;3.60;;;0.90;;
55009;SDS011;40903;51.638;7.528;2023-12-29T09:08:35;3.50;;;0.87;;
55009;SDS011;40903;51.638;7.528;2023-12-29T09:11:01;5.40;;;1.07;;
55009;SDS011;40903;51.638;7.528;2023-12-29T09:13:26;2.17;;;0.80;;
55009;SDS011;40903;51.638;7.528;2023-12-29T09:15:53;2.80;;;0.93;;
55009;SDS011;40903;51.638;7.528;2023-12-29T09:18:19;7.20;;;1.40;;
55009;SDS011;40903;51.638;7.528;2023-12-29T09:20:45;4.60;;;1.20;;
55009;SDS011;40903;51.638;7.528;2023-12-29T09:23:10;4.40;;;1.10;;
55009;SDS011;40903;51.638;7.528;2023-12-29T09:25:35;2.70;;;1.20;;
55009;SDS011;40903;51.638;7.528;2023-12-29T09:28:01;2.17;;;0.90;;
55009;SDS011;40903;51.638;7.528;2023-12-29T09:30:26;5.20;;;1.00;;
55009;SDS011;40903;51.638;7.528;2023-12-29T09:32:52;3.60;;;1.27;;
55009;SDS011;40903;51.638;7.528;2023-12-29T09:35:17;2.00;;;1.20;;
55009;SDS011;40903;51.638;7.528;2023-12-29T09:37:42;2.07;;;0.90;;
55009;SDS011;40903;51.638;7.528;2023-12-29T09:40:09;0.73;;;0.60;;
55009;SDS011;40903;51.638;7.528;2023-12-29T09:42:35;1.70;;;0.80;;
55009;SDS011;40903;51.638;7.528;2023-12-29T09:45:03;2.70;;;0.80;;
55009;SDS011;40903;51.638;7.528;2023-12-29T09:47:32;2.80;;;0.70;;
55009;SDS011;40903;51.638;7.528;2023-12-29T09:50:01;1.23;;;0.80;;
55009;SDS011;40903;51.638;7.528;2023-12-29T09:52:28;1.47;;;0.73;;
55009;SDS011;40903;51.638;7.528;2023-12-29T09:54:54;0.57;;;0.40;;
55009;SDS011;40903;51.638;7.528;2023-12-29T09:57:19;1.70;;;0.63;;
55009;SDS011;40903;51.638;7.528;2023-12-29T09:59:46;1.00;;;0.60;;
55009;SDS011;40903;51.638;7.528;2023-12-29T10:02:16;2.87;;;0.70;;
55009;SDS011;40903;51.638;7.528;2023-12-29T10:04:42;2.10;;;0.60;;
55009;SDS011;40903;51.638;7.528;2023-12-29T10:07:11;3.03;;;1.13;;
55009;SDS011;40903;51.638;7.528;2023-12-29T10:09:40;0.87;;;0.30;;
55009;SDS011;40903;51.638;7.528;2023-12-29T10:12:08;0.60;;;0.50;;
55009;SDS011;40903;51.638;7.528;2023-12-29T10:14:43;2.03;;;1.00;;
55009;SDS011;40903;51.638;7.528;2023-12-29T10:17:17;0.43;;;0.40;;
55009;SDS011;40903;51.638;7.528;2023-12-29T10:20:02;0.77;;;0.43;;
55009;SDS011;40903;51.638;7.528;2023-12-29T10:22:48;0.83;;;0.50;;
55009;SDS011;40903;51.638;7.528;2023-12-29T10:25:19;1.23;;;0.53;;
55009;SDS011;40903;51.638;7.528;2023-12-29T10:27:47;1.43;;;0.50;;
55009;SDS011;40903;51.638;7.528;2023-12-29T10:30:13;2.20;;;0.50;;
55009;SDS011;40903;51.638;7.528;2023-12-29T10:32:40;0.40;;;0.40;;
55009;SDS011;40903;51.638;7.528;2023-12-29T10:35:08;2.67;;;0.30;;
55009;SDS011;40903;51.638;7.528;2023-12-29T10:37:35;0.70;;;0.40;;
55009;SDS011;40903;51.638;7.528;2023-12-29T10:40:01;1.10;;;0.50;;
55009;SDS011;40903;51.638;7.528;2023-12-29T10:42:26;0.97;;;0.30;;
55009;SDS011;40903;51.638;7.528;2023-12-29T10:45:04;3.17;;;0.67;;
55009;SDS011;40903;51.638;7.528;2023-12-29T10:47:33;1.90;;;0.23;;
55009;SDS011;40903;51.638;7.528;2023-12-29T10:50:03;2.00;;;0.43;;
55009;SDS011;40903;51.638;7.528;2023-12-29T10:52:29;0.60;;;0.50;;
55009;SDS011;40903;51.638;7.528;2023-12-29T10:55:03;1.03;;;0.73;;
55009;SDS011;40903;51.638;7.528;2023-12-29T10:57:30;0.83;;;0.40;;
55009;SDS011;40903;51.638;7.528;2023-12-29T10:59:55;0.90;;;0.70;;
55009;SDS011;40903;51.638;7.528;2023-12-29T11:02:21;2.00;;;0.50;;
55009;SDS011;40903;51.638;7.528;2023-12-29T11:04:46;0.47;;;0.40;;
55009;SDS011;40903;51.638;7.528;2023-12-29T11:07:12;0.33;;;0.30;;
55009;SDS011;40903;51.638;7.528;2023-12-29T11:09:38;1.33;;;0.43;;
55009;SDS011;40903;51.638;7.528;2023-12-29T11:12:04;0.70;;;0.40;;
55009;SDS011;40903;51.638;7.528;2023-12-29T11:14:33;0.40;;;0.40;;
55009;SDS011;40903;51.638;7.528;2023-12-29T11:16:59;0.77;;;0.40;;
55009;SDS011;40903;51.638;7.528;2023-12-29T11:19:25;0.50;;;0.50;;
55009;SDS011;40903;51.638;7.528;2023-12-29T11:21:57;0.97;;;0.40;;
55009;SDS011;40903;51.638;7.528;2023-12-29T11:24:26;0.97;;;0.43;;
55009;SDS011;40903;51.638;7.528;2023-12-29T11:26:58;1.17;;;0.83;;
55009;SDS011;40903;51.638;7.528;2023-12-29T11:29:24;1.10;;;0.67;;
55009;SDS011;40903;51.638;7.528;2023-12-29T11:31:50;1.13;;;0.43;;
55009;SDS011;40903;51.638;7.528;2023-12-29T11:34:33;1.83;;;0.70;;
55009;SDS011;40903;51.638;7.528;2023-12-29T11:37:10;0.50;;;0.50;;
55009;SDS011;40903;51.638;7.528;2023-12-29T11:39:48;1.57;;;0.60;;
55009;SDS011;40903;51.638;7.528;2023-12-29T11:42:28;3.47;;;0.90;;
55009;SDS011;40903;51.638;7.528;2023-12-29T11:47:53;0.67;;;0.67;;
55009;SDS011;40903;51.638;7.528;2023-12-29T11:50:36;4.00;;;0.67;;
55009;SDS011;40903;51.638;7.528;2023-12-29T11:53:05;2.13;;;0.67;;
55009;SDS011;40903;51.638;7.528;2023-12-29T11:55:36;1.53;;;0.80;;
55009;SDS011;40903;51.638;7.528;2023-12-29T11:58:24;2.07;;;0.97;;
55009;SDS011;40903;51.638;7.528;2023-12-29T12:00:53;1.23;;;0.80;;
55009;SDS011;40903;51.638;7.528;2023-12-29T12:03:28;2.30;;;0.70;;
55009;SDS011;40903;51.638;7.528;2023-12-29T12:05:59;1.40;;;0.80;;
55009;SDS011;40903;51.638;7.528;2023-12-29T12:08:28;6.07;;;1.10;;
55009;SDS011;40903;51.638;7.528;2023-12-29T12:13:56;2.13;;;1.00;;
55009;SDS011;40903;51.638;7.528;2023-12-29T12:19:13;1.13;;;1.00;;
55009;SDS011;40903;51.638;7.528;2023-12-29T12:21:40;3.63;;;1.10;;
55009;SDS011;40903;51.638;7.528;2023-12-29T12:24:06;3.83;;;1.10;;
55009;SDS011;40903;51.638;7.528;2023-12-29T12:26:33;7.10;;;1.33;;
55009;SDS011;40903;51.638;7.528;2023-12-29T12:29:02;2.30;;;1.03;;
55009;SDS011;40903;51.638;7.528;2023-12-29T12:31:29;1.33;;;1.10;;
55009;SDS011;40903;51.638;7.528;2023-12-29T12:33:57;1.63;;;1.23;;
55009;SDS011;40903;51.638;7.528;2023-12-29T12:36:25;4.57;;;1.27;;
55009;SDS011;40903;51.638;7.528;2023-12-29T12:38:57;2.27;;;1.40;;
55009;SDS011;40903;51.638;7.528;2023-12-29T12:41:41;5.30;;;1.80;;
55009;SDS011;40903;51.638;7.528;2023-12-29T12:44:13;2.90;;;1.40;;
55009;SDS011;40903;51.638;7.528;2023-12-29T12:46:41;5.43;;;1.30;;
55009;SDS011;40903;51.638;7.528;2023-12-29T12:49:07;1.70;;;0.83;;
55009;SDS011;40903;51.638;7.528;2023-12-29T12:51:33;2.30;;;1.20;;
55009;SDS011;40903;51.638;7.528;2023-12-29T12:53:59;2.37;;;2.17;;
55009;SDS011;40903;51.638;7.528;2023-12-29T12:56:25;1.57;;;1.10;;
55009;SDS011;40903;51.638;7.528;2023-12-29T12:58:58;1.40;;;1.30;;
55009;SDS011;40903;51.638;7.528;2023-12-29T13:01:26;2.23;;;1.10;;
55009;SDS011;40903;51.638;7.528;2023-12-29T13:03:53;6.03;;;1.30;;
55009;SDS011;40903;51.638;7.528;2023-12-29T13:06:23;2.20;;;1.20;;
55009;SDS011;40903;51.638;7.528;2023-12-29T13:08:49;2.00;;;1.00;;
55009;SDS011;40903;51.638;7.528;2023-12-29T13:11:19;2.60;;;1.20;;
55009;SDS011;40903;51.638;7.528;2023-12-29T13:13:50;2.37;;;1.30;;
55009;SDS011;40903;51.638;7.528;2023-12-29T13:19:22;2.63;;;0.87;;
55009;SDS011;40903;51.638;7.528;2023-12-29T13:21:52;3.90;;;1.60;;
55009;SDS011;40903;51.638;7.528;2023-12-29T13:24:28;1.83;;;1.03;;
55009;SDS011;40903;51.638;7.528;2023-12-29T13:26:55;1.00;;;0.90;;
55009;SDS011;40903;51.638;7.528;2023-12-29T13:29:35;4.13;;;1.07;;
55009;SDS011;40903;51.638;7.528;2023-12-29T13:32:15;0.90;;;0.70;;
55009;SDS011;40903;51.638;7.528;2023-12-29T13:39:05;2.80;;;0.70;;
55009;SDS011;40903;51.638;7.528;2023-12-29T13:41:09;1.57;;;0.70;;
55009;SDS011;40903;51.638;7.528;2023-12-29T13:43:37;1.33;;;0.70;;
55009;SDS011;40903;51.638;7.528;2023-12-29T13:46:07;2.43;;;1.00;;
55009;SDS011;40903;51.638;7.528;2023-12-29T13:48:44;0.73;;;0.60;;
55009;SDS011;40903;51.638;7.528;2023-12-29T13:51:16;1.87;;;0.80;;
55009;SDS011;40903;51.638;7.528;2023-12-29T13:53:42;2.80;;;1.00;;
55009;SDS011;40903;51.638;7.528;2023-12-29T13:56:11;1.40;;;0.83;;
55009;SDS011;40903;51.638;7.528;2023-12-29T13:58:40;1.57;;;0.70;;
55009;SDS011;40903;51.638;7.528;2023-12-29T14:01:09;2.20;;;1.63;;
55009;SDS011;40903;51.638;7.528;2023-12-29T14:06:28;2.30;;;0.90;;
55009;SDS011;40903;51.638;7.528;2023-12-29T14:09:03;2.87;;;1.27;;
55009;SDS011;40903;51.638;7.528;2023-12-29T14:11:29;3.03;;;0.80;;
55009;SDS011;40903;51.638;7.528;2023-12-29T14:13:58;2.03;;;0.90;;
55009;SDS011;40903;51.638;7.528;2023-12-29T14:16:24;1.47;;;0.80;;
55009;SDS011;40903;51.638;7.528;2023-12-29T14:18:55;1.40;;;0.90;;
55009;SDS011;40903;51.638;7.528;2023-12-29T14:21:39;3.30;;;0.90;;
55009;SDS011;40903;51.638;7.528;2023-12-29T14:26:38;1.23;;;0.80;;
55009;SDS011;40903;51.638;7.528;2023-12-29T14:29:11;2.50;;;1.20;;
55009;SDS011;40903;51.638;7.528;2023-12-29T14:31:38;1.83;;;1.27;;
55009;SDS011;40903;51.638;7.528;2023-12-29T14:34:09;1.30;;;1.10;;
55009;SDS011;40903;51.638;7.528;2023-12-29T14:36:40;1.67;;;1.30;;
55009;SDS011;40903;51.638;7.528;2023-12-29T14:39:07;2.23;;;1.30;;
55009;SDS011;40903;51.638;7.528;2023-12-29T14:41:35;1.73;;;1.27;;
55009;SDS011;40903;51.638;7.528;2023-12-29T14:44:01;3.37;;;1.37;;
55009;SDS011;40903;51.638;7.528;2023-12-29T14:46:27;1.47;;;1.27;;
55009;SDS011;40903;51.638;7.528;2023-12-29T14:48:53;1.30;;;1.10;;
55009;SDS011;40903;51.638;7.528;2023-12-29T14:51:19;2.30;;;1.00;;
55009;SDS011;40903;51.638;7.528;2023-12-29T14:53:47;2.67;;;1.40;;
55009;SDS011;40903;51.638;7.528;2023-12-29T14:56:13;2.77;;;2.13;;
55009;SDS011;40903;51.638;7.528;2023-12-29T14:58:42;1.90;;;1.60;;
55009;SDS011;40903;51.638;7.528;2023-12-29T15:01:08;3.47;;;2.00;;
55009;SDS011;40903;51.638;7.528;2023-12-29T15:03:34;2.50;;;1.90;;
55009;SDS011;40903;51.638;7.528;2023-12-29T15:06:01;2.30;;;1.80;;
55009;SDS011;40903;51.638;7.528;2023-12-29T15:08:28;3.53;;;2.10;;
55009;SDS011;40903;51.638;7.528;2023-12-29T15:11:00;3.73;;;2.00;;
55009;SDS011;40903;51.638;7.528;2023-12-29T15:13:29;2.33;;;1.40;;